sensor_id;sensor_type;location;lat;lon;timestamp;P1;durP1;ratioP1;P2;durP2;ratioP2
71162;SDS011;58858;50.948;6.566;2023-05-19T00:08:44;9.75;;;3.40;;
71162;SDS011;58858;50.948;6.566;2023-05-19T00:18:45;6.53;;;2.72;;
71162;SDS011;58858;50.948;6.566;2023-05-19T00:28:48;5.13;;;2.42;;
71162;SDS011;58858;50.948;6.566;2023-05-19T00:38:49;6.43;;;2.60;;
71162;SDS011;58858;50.948;6.566;2023-05-19T00:48:50;7.90;;;3.60;;
71162;SDS011;58858;50.948;6.566;2023-05-19T00:58:51;7.13;;;3.13;;
71162;SDS011;58858;50.948;6.566;2023-05-19T01:08:53;5.28;;;3.17;;
71162;SDS011;58858;50.948;6.566;2023-05-19T01:29:05;6.75;;;3.08;;
71162;SDS011;58858;50.948;6.566;2023-05-19T01:39:09;4.80;;;3.33;;
71162;SDS011;58858;50.948;6.566;2023-05-19T01:49:10;10.05;;;3.95;;
71162;SDS011;58858;50.948;6.566;2023-05-19T01:59:31;8.27;;;3.20;;
71162;SDS011;58858;50.948;6.566;2023-05-19T02:09:38;7.82;;;3.83;;
71162;SDS011;58858;50.948;6.566;2023-05-19T02:19:42;7.75;;;3.95;;
71162;SDS011;58858;50.948;6.566;2023-05-19T02:29:44;6.25;;;3.33;;
71162;SDS011;58858;50.948;6.566;2023-05-19T02:39:45;4.95;;;3.78;;
71162;SDS011;58858;50.948;6.566;2023-05-19T02:49:46;9.45;;;3.88;;
71162;SDS011;58858;50.948;6.566;2023-05-19T02:59:49;5.32;;;3.45;;
71162;SDS011;58858;50.948;6.566;2023-05-19T03:09:50;9.50;;;3.47;;
71162;SDS011;58858;50.948;6.566;2023-05-19T03:19:52;9.20;;;3.97;;
71162;SDS011;58858;50.948;6.566;2023-05-19T03:29:53;5.30;;;3.67;;
71162;SDS011;58858;50.948;6.566;2023-05-19T03:39:55;9.25;;;4.53;;
71162;SDS011;58858;50.948;6.566;2023-05-19T03:49:57;8.52;;;4.30;;
71162;SDS011;58858;50.948;6.566;2023-05-19T04:00:15;12.02;;;4.72;;
71162;SDS011;58858;50.948;6.566;2023-05-19T04:10:16;13.18;;;4.10;;
71162;SDS011;58858;50.948;6.566;2023-05-19T04:20:18;7.47;;;4.22;;
71162;SDS011;58858;50.948;6.566;2023-05-19T04:30:23;7.57;;;4.82;;
71162;SDS011;58858;50.948;6.566;2023-05-19T04:40:25;15.38;;;5.50;;
71162;SDS011;58858;50.948;6.566;2023-05-19T04:50:27;11.30;;;5.22;;
71162;SDS011;58858;50.948;6.566;2023-05-19T05:00:29;12.23;;;5.10;;
71162;SDS011;58858;50.948;6.566;2023-05-19T05:10:37;9.95;;;4.45;;
71162;SDS011;58858;50.948;6.566;2023-05-19T05:20:42;12.43;;;5.68;;
71162;SDS011;58858;50.948;6.566;2023-05-19T05:30:45;7.80;;;4.53;;
71162;SDS011;58858;50.948;6.566;2023-05-19T05:40:48;9.38;;;4.50;;
71162;SDS011;58858;50.948;6.566;2023-05-19T05:50:51;9.15;;;4.85;;
71162;SDS011;58858;50.948;6.566;2023-05-19T06:00:57;9.32;;;4.55;;
71162;SDS011;58858;50.948;6.566;2023-05-19T06:11:00;10.75;;;4.97;;
71162;SDS011;58858;50.948;6.566;2023-05-19T06:21:08;13.63;;;3.50;;
71162;SDS011;58858;50.948;6.566;2023-05-19T06:31:29;11.82;;;3.33;;
71162;SDS011;58858;50.948;6.566;2023-05-19T06:41:37;9.43;;;3.28;;
71162;SDS011;58858;50.948;6.566;2023-05-19T06:51:40;6.97;;;2.65;;
71162;SDS011;58858;50.948;6.566;2023-05-19T07:01:45;9.00;;;2.38;;
71162;SDS011;58858;50.948;6.566;2023-05-19T07:11:46;4.25;;;2.13;;
71162;SDS011;58858;50.948;6.566;2023-05-19T07:21:47;5.85;;;1.92;;
71162;SDS011;58858;50.948;6.566;2023-05-19T07:31:49;4.25;;;1.73;;
71162;SDS011;58858;50.948;6.566;2023-05-19T07:41:54;9.07;;;2.42;;
71162;SDS011;58858;50.948;6.566;2023-05-19T07:51:56;6.15;;;2.13;;
71162;SDS011;58858;50.948;6.566;2023-05-19T08:01:58;8.10;;;2.70;;
71162;SDS011;58858;50.948;6.566;2023-05-19T08:11:59;8.43;;;2.55;;
71162;SDS011;58858;50.948;6.566;2023-05-19T08:22:01;6.75;;;2.67;;
71162;SDS011;58858;50.948;6.566;2023-05-19T08:32:03;6.38;;;2.67;;
71162;SDS011;58858;50.948;6.566;2023-05-19T08:42:04;11.07;;;3.15;;
71162;SDS011;58858;50.948;6.566;2023-05-19T09:02:31;5.40;;;2.83;;
71162;SDS011;58858;50.948;6.566;2023-05-19T09:12:33;6.55;;;2.50;;
71162;SDS011;58858;50.948;6.566;2023-05-19T09:22:34;8.30;;;2.92;;
71162;SDS011;58858;50.948;6.566;2023-05-19T09:32:40;8.20;;;3.00;;
71162;SDS011;58858;50.948;6.566;2023-05-19T09:42:41;6.28;;;2.15;;
71162;SDS011;58858;50.948;6.566;2023-05-19T09:52:43;7.80;;;2.78;;
71162;SDS011;58858;50.948;6.566;2023-05-19T10:02:45;5.32;;;2.65;;
71162;SDS011;58858;50.948;6.566;2023-05-19T10:12:52;12.73;;;3.20;;
71162;SDS011;58858;50.948;6.566;2023-05-19T10:23:04;5.85;;;2.45;;
71162;SDS011;58858;50.948;6.566;2023-05-19T10:33:24;14.15;;;3.35;;
71162;SDS011;58858;50.948;6.566;2023-05-19T10:54:23;3.38;;;2.10;;
71162;SDS011;58858;50.948;6.566;2023-05-19T11:04:47;7.20;;;2.85;;
71162;SDS011;58858;50.948;6.566;2023-05-19T11:14:53;8.38;;;3.22;;
71162;SDS011;58858;50.948;6.566;2023-05-19T11:34:56;7.70;;;3.08;;
71162;SDS011;58858;50.948;6.566;2023-05-19T11:44:57;8.15;;;2.58;;
71162;SDS011;58858;50.948;6.566;2023-05-19T11:54:58;7.60;;;3.15;;
71162;SDS011;58858;50.948;6.566;2023-05-19T12:05:01;5.88;;;2.80;;
71162;SDS011;58858;50.948;6.566;2023-05-19T12:15:02;4.75;;;1.98;;
71162;SDS011;58858;50.948;6.566;2023-05-19T12:25:03;7.85;;;3.00;;
71162;SDS011;58858;50.948;6.566;2023-05-19T12:35:05;6.00;;;2.65;;
71162;SDS011;58858;50.948;6.566;2023-05-19T12:45:06;10.70;;;2.65;;
71162;SDS011;58858;50.948;6.566;2023-05-19T12:55:08;7.13;;;2.28;;
71162;SDS011;58858;50.948;6.566;2023-05-19T13:05:11;8.85;;;2.78;;
71162;SDS011;58858;50.948;6.566;2023-05-19T13:15:12;11.48;;;2.63;;
71162;SDS011;58858;50.948;6.566;2023-05-19T13:25:13;7.15;;;2.40;;
71162;SDS011;58858;50.948;6.566;2023-05-19T13:35:14;11.52;;;2.72;;
71162;SDS011;58858;50.948;6.566;2023-05-19T13:45:16;7.30;;;2.45;;
71162;SDS011;58858;50.948;6.566;2023-05-19T13:55:18;7.75;;;2.83;;
71162;SDS011;58858;50.948;6.566;2023-05-19T14:05:19;10.32;;;2.13;;
71162;SDS011;58858;50.948;6.566;2023-05-19T14:15:20;7.22;;;2.13;;
71162;SDS011;58858;50.948;6.566;2023-05-19T14:25:21;8.10;;;2.38;;
71162;SDS011;58858;50.948;6.566;2023-05-19T14:35:22;8.50;;;3.30;;
71162;SDS011;58858;50.948;6.566;2023-05-19T14:45:23;7.03;;;2.78;;
71162;SDS011;58858;50.948;6.566;2023-05-19T14:55:25;3.88;;;2.28;;
71162;SDS011;58858;50.948;6.566;2023-05-19T15:05:26;5.55;;;2.45;;
71162;SDS011;58858;50.948;6.566;2023-05-19T15:15:27;6.60;;;2.55;;
71162;SDS011;58858;50.948;6.566;2023-05-19T15:25:28;6.85;;;2.60;;
71162;SDS011;58858;50.948;6.566;2023-05-19T15:35:30;6.00;;;2.10;;
71162;SDS011;58858;50.948;6.566;2023-05-19T15:45:31;7.70;;;2.42;;
71162;SDS011;58858;50.948;6.566;2023-05-19T15:55:32;8.57;;;2.42;;
71162;SDS011;58858;50.948;6.566;2023-05-19T16:05:33;8.93;;;1.83;;
71162;SDS011;58858;50.948;6.566;2023-05-19T16:15:34;6.43;;;1.60;;
71162;SDS011;58858;50.948;6.566;2023-05-19T16:25:35;2.78;;;1.70;;
71162;SDS011;58858;50.948;6.566;2023-05-19T16:35:36;6.75;;;1.35;;
71162;SDS011;58858;50.948;6.566;2023-05-19T16:45:37;7.30;;;1.70;;
71162;SDS011;58858;50.948;6.566;2023-05-19T16:55:39;3.40;;;1.45;;
71162;SDS011;58858;50.948;6.566;2023-05-19T17:05:41;7.10;;;2.00;;
71162;SDS011;58858;50.948;6.566;2023-05-19T17:15:42;2.20;;;1.42;;
71162;SDS011;58858;50.948;6.566;2023-05-19T17:25:44;4.07;;;1.92;;
71162;SDS011;58858;50.948;6.566;2023-05-19T17:35:45;2.05;;;1.15;;
71162;SDS011;58858;50.948;6.566;2023-05-19T17:45:46;2.72;;;1.83;;
71162;SDS011;58858;50.948;6.566;2023-05-19T17:55:56;4.88;;;1.60;;
71162;SDS011;58858;50.948;6.566;2023-05-19T18:05:59;3.90;;;1.55;;
71162;SDS011;58858;50.948;6.566;2023-05-19T18:16:01;3.03;;;1.38;;
71162;SDS011;58858;50.948;6.566;2023-05-19T18:26:02;2.53;;;1.25;;
71162;SDS011;58858;50.948;6.566;2023-05-19T18:36:03;3.63;;;1.63;;
71162;SDS011;58858;50.948;6.566;2023-05-19T18:46:04;5.90;;;1.58;;
71162;SDS011;58858;50.948;6.566;2023-05-19T18:56:11;5.47;;;1.40;;
71162;SDS011;58858;50.948;6.566;2023-05-19T19:06:18;4.03;;;0.93;;
71162;SDS011;58858;50.948;6.566;2023-05-19T19:16:20;4.38;;;1.92;;
71162;SDS011;58858;50.948;6.566;2023-05-19T19:26:21;3.30;;;1.40;;
71162;SDS011;58858;50.948;6.566;2023-05-19T19:36:24;8.75;;;1.52;;
71162;SDS011;58858;50.948;6.566;2023-05-19T19:46:27;3.70;;;1.40;;
71162;SDS011;58858;50.948;6.566;2023-05-19T19:56:28;1.77;;;1.20;;
71162;SDS011;58858;50.948;6.566;2023-05-19T20:06:29;5.95;;;1.33;;
71162;SDS011;58858;50.948;6.566;2023-05-19T20:16:31;4.72;;;2.05;;
71162;SDS011;58858;50.948;6.566;2023-05-19T20:26:32;1.83;;;1.25;;
71162;SDS011;58858;50.948;6.566;2023-05-19T20:36:33;2.65;;;1.23;;
71162;SDS011;58858;50.948;6.566;2023-05-19T20:46:34;3.55;;;2.00;;
71162;SDS011;58858;50.948;6.566;2023-05-19T20:56:35;4.07;;;1.40;;
71162;SDS011;58858;50.948;6.566;2023-05-19T21:06:37;2.92;;;1.17;;
71162;SDS011;58858;50.948;6.566;2023-05-19T21:16:38;3.20;;;1.40;;
71162;SDS011;58858;50.948;6.566;2023-05-19T21:26:40;3.50;;;1.40;;
71162;SDS011;58858;50.948;6.566;2023-05-19T21:36:41;2.65;;;1.40;;
71162;SDS011;58858;50.948;6.566;2023-05-19T21:46:43;6.00;;;1.40;;
71162;SDS011;58858;50.948;6.566;2023-05-19T21:56:44;2.20;;;1.15;;
71162;SDS011;58858;50.948;6.566;2023-05-19T22:06:45;2.17;;;1.48;;
71162;SDS011;58858;50.948;6.566;2023-05-19T22:16:46;2.00;;;1.40;;
71162;SDS011;58858;50.948;6.566;2023-05-19T22:26:47;3.78;;;1.90;;
71162;SDS011;58858;50.948;6.566;2023-05-19T22:36:49;6.00;;;2.10;;
71162;SDS011;58858;50.948;6.566;2023-05-19T22:46:50;5.00;;;1.75;;
71162;SDS011;58858;50.948;6.566;2023-05-19T22:56:51;2.72;;;1.30;;
71162;SDS011;58858;50.948;6.566;2023-05-19T23:06:52;3.67;;;1.50;;
71162;SDS011;58858;50.948;6.566;2023-05-19T23:16:53;2.67;;;1.48;;
71162;SDS011;58858;50.948;6.566;2023-05-19T23:26:54;2.88;;;1.73;;
71162;SDS011;58858;50.948;6.566;2023-05-19T23:36:55;4.25;;;1.70;;
71162;SDS011;58858;50.948;6.566;2023-05-19T23:46:56;5.00;;;1.52;;
71162;SDS011;58858;50.948;6.566;2023-05-19T23:56:57;1.83;;;1.20;;
